Metar z połowy godziny Komunikat METAR ze strony awiacja.imgw.pl Metar G00 EPLL METAR EPLL 211630Z 11004KT 070V190 CAVOK 29/12 Q1013 =